Time;durP1;ratioP1;P1;durP2;ratioP2;P2;SDS_P1;SDS_P2;PMS_P1;PMS_P2;Temp;Humidity;BMP_temperature;BMP_pressure;BME280_temperature;BME280_humidity;BME280_pressure;Samples;Min_cycle;Max_cycle;Signal;HPM_P1;HPM_P2
2024/03/04 01:58:40;;;;;;;15.10;9.80;;;;;;;2.70;100.00;101274.21;102941;1293;601101;-73
2024/03/04 02:01:08;;;;;;;15.30;9.70;;;;;;;2.69;100.00;101271.83;105170;1268;59363;-74
2024/03/04 02:03:37;;;;;;;16.20;10.00;;;;;;;2.72;100.00;101273.85;104939;1265;59353;-74
2024/03/04 02:06:05;;;;;;;24.10;12.00;;;;;;;2.73;100.00;101276.41;104899;1267;71251;-73
2024/03/04 02:08:32;;;;;;;21.70;10.40;;;;;;;2.73;100.00;101277.45;104986;1267;63619;-74
2024/03/04 02:11:00;;;;;;;19.10;10.50;;;;;;;2.73;100.00;101277.80;104925;1267;72647;-73
2024/03/04 02:13:27;;;;;;;22.60;11.90;;;;;;;2.72;100.00;101278.86;104995;1264;223614;-75
2024/03/04 02:15:55;;;;;;;21.00;11.60;;;;;;;2.72;100.00;101276.27;105212;1264;59221;-74
2024/03/04 02:18:23;;;;;;;23.10;10.90;;;;;;;2.71;100.00;101277.48;105112;1269;71372;-72
2024/03/04 02:20:53;;;;;;;22.20;11.00;;;;;;;2.71;100.00;101280.94;105250;1266;63570;-73
2024/03/04 02:23:20;;;;;;;16.00;9.20;;;;;;;2.69;100.00;101286.83;105196;1261;71736;-73
2024/03/04 02:25:55;;;;;;;19.80;10.30;;;;;;;2.66;100.00;101285.52;105843;1251;59599;-76
2024/03/04 02:28:22;;;;;;;;;;;;;;;2.64;100.00;101282.42;105739;1256;59727;-72
2024/03/04 02:30:50;;;;;;;19.70;10.70;;;;;;;2.66;100.00;101279.48;105665;1256;71513;-74
2024/03/04 02:33:20;;;;;;;14.50;9.60;;;;;;;2.66;100.00;101284.83;105743;1257;62742;-75
2024/03/04 02:35:51;;;;;;;16.10;8.90;;;;;;;2.65;100.00;101282.41;105778;1254;71243;-72
2024/03/04 02:38:18;;;;;;;15.80;10.20;;;;;;;2.63;100.00;101282.63;105721;1257;59681;-74
2024/03/04 02:40:48;;;;;;;13.10;9.40;;;;;;;2.61;100.00;101283.00;105876;1256;59586;-72
2024/03/04 02:43:17;;;;;;;12.70;9.30;;;;;;;2.60;100.00;101281.30;105703;1257;71986;-72
2024/03/04 02:45:44;;;;;;;14.50;9.40;;;;;;;2.60;100.00;101288.38;105817;1256;63668;-72
2024/03/04 02:48:12;;;;;;;20.40;9.90;;;;;;;2.58;100.00;101286.84;105735;1256;71350;-71
2024/03/04 02:50:40;;;;;;;18.60;9.40;;;;;;;2.58;100.00;101287.02;105733;1256;59682;-72
2024/03/04 02:53:08;;;;;;;11.80;9.60;;;;;;;2.62;100.00;101291.97;105723;1256;59807;-73
2024/03/04 02:55:37;;;;;;;17.60;10.60;;;;;;;2.66;100.00;101292.23;105768;1257;71874;-74
2024/03/04 02:58:06;;;;;;;14.40;9.70;;;;;;;2.64;100.00;101291.07;105931;1256;62884;-72
2024/03/04 03:00:34;;;;;;;17.20;9.80;;;;;;;2.62;100.00;101293.17;105828;1256;72727;-72
2024/03/04 03:03:02;;;;;;;20.90;11.40;;;;;;;2.63;100.00;101289.72;105769;1251;59595;-73
2024/03/04 03:05:29;;;;;;;17.60;10.00;;;;;;;2.65;100.00;101290.19;106100;1253;61343;-72
2024/03/04 03:07:57;;;;;;;17.50;10.70;;;;;;;2.66;100.00;101286.88;105878;1254;72637;-73
2024/03/04 03:10:26;;;;;;;15.40;9.10;;;;;;;2.71;100.00;101286.80;105697;1257;62886;-71
2024/03/04 03:12:54;;;;;;;20.40;10.90;;;;;;;2.76;100.00;101287.77;105904;1254;71435;-72
2024/03/04 03:15:22;;;;;;;16.30;10.50;;;;;;;2.74;100.00;101291.60;105917;1254;59673;-72
2024/03/04 03:17:49;;;;;;;19.60;10.30;;;;;;;2.70;100.00;101291.14;105706;1257;59618;-72
2024/03/04 03:20:18;;;;;;;14.60;9.80;;;;;;;2.67;100.00;101294.48;105700;1256;73039;-72
2024/03/04 03:22:48;;;;;;;19.00;10.20;;;;;;;2.66;100.00;101297.08;105716;1258;63719;-72
2024/03/04 03:25:16;;;;;;;19.70;12.10;;;;;;;2.65;100.00;101293.98;105765;1256;72771;-73
2024/03/04 03:27:44;;;;;;;17.30;11.80;;;;;;;2.63;100.00;101295.92;105737;1252;59612;-71
2024/03/04 03:30:12;;;;;;;23.00;11.40;;;;;;;2.59;100.00;101298.92;105857;1256;59629;-72
2024/03/04 03:32:40;;;;;;;19.50;10.70;;;;;;;2.55;100.00;101300.36;105748;1257;72292;-73
2024/03/04 03:35:08;;;;;;;18.00;10.90;;;;;;;2.55;100.00;101299.33;105773;1257;63512;-74
2024/03/04 03:37:36;;;;;;;25.90;11.40;;;;;;;2.54;100.00;101301.08;105776;1256;72719;-73
2024/03/04 03:40:05;;;;;;;18.90;10.20;;;;;;;2.51;100.00;101300.77;105818;1254;59732;-74
2024/03/04 03:42:33;;;;;;;17.50;9.80;;;;;;;2.54;100.00;101306.60;105784;1254;59710;-72
2024/03/04 03:45:00;;;;;;;16.10;10.70;;;;;;;2.56;100.00;101305.02;105768;1257;73010;-76
2024/03/04 03:47:29;;;;;;;18.40;9.80;;;;;;;2.56;100.00;101309.85;105782;1256;63587;-72
2024/03/04 03:49:58;;;;;;;19.90;10.90;;;;;;;2.55;100.00;101307.26;105809;1257;71774;-74
2024/03/04 03:52:27;;;;;;;20.10;10.70;;;;;;;2.54;100.00;101306.60;105940;1254;59643;-75
2024/03/04 03:54:55;;;;;;;17.80;9.60;;;;;;;2.53;100.00;101308.50;105823;1256;60006;-74
2024/03/04 03:57:23;;;;;;;13.10;8.20;;;;;;;2.53;100.00;101309.89;105816;1252;71900;-73
2024/03/04 03:59:50;;;;;;;17.10;9.20;;;;;;;2.57;100.00;101307.58;105917;1258;63724;-72
2024/03/04 04:02:19;;;;;;;14.40;8.10;;;;;;;2.58;100.00;101310.15;105732;1254;71400;-74
2024/03/04 04:04:46;;;;;;;11.20;7.90;;;;;;;2.59;100.00;101307.38;105682;1257;59615;-75
2024/03/04 04:07:14;;;;;;;17.50;9.60;;;;;;;2.61;100.00;101310.10;105715;1259;59660;-74
2024/03/04 04:09:41;;;;;;;13.80;9.40;;;;;;;2.64;100.00;101314.02;105868;1254;71791;-76
2024/03/04 04:12:09;;;;;;;18.20;9.20;;;;;;;2.68;100.00;101316.04;105839;1257;63594;-75
2024/03/04 04:14:36;;;;;;;14.70;8.90;;;;;;;2.68;100.00;101314.48;105708;1258;72702;-74
2024/03/04 04:17:04;;;;;;;23.30;10.40;;;;;;;2.65;100.00;101313.66;105928;1257;59724;-73
2024/03/04 04:19:34;;;;;;;14.80;9.50;;;;;;;2.65;100.00;101311.77;105860;1251;59525;-75
2024/03/04 04:22:02;;;;;;;16.70;10.30;;;;;;;2.66;100.00;101315.89;105710;1257;72908;-73
2024/03/04 04:24:29;;;;;;;17.90;10.80;;;;;;;2.65;100.00;101317.13;105687;1267;63563;-74
2024/03/04 04:26:57;;;;;;;18.70;10.60;;;;;;;2.60;100.00;101317.54;105681;1260;72499;-74
2024/03/04 04:29:24;;;;;;;13.20;9.30;;;;;;;2.61;100.00;101314.93;105756;1255;59739;-73
2024/03/04 04:31:54;;;;;;;19.10;11.50;;;;;;;2.62;100.00;101315.79;105952;1266;59999;-73
2024/03/04 04:34:22;;;;;;;12.10;7.90;;;;;;;2.64;100.00;101321.30;105961;1256;73290;-71
2024/03/04 04:37:09;;;;;;;16.80;9.10;;;;;;;2.67;100.00;101320.71;102737;1294;600940;-73
2024/03/04 04:39:38;;;;;;;15.30;8.70;;;;;;;2.62;100.00;101321.83;104886;1269;59302;-73
2024/03/04 04:42:07;;;;;;;16.20;10.00;;;;;;;2.65;100.00;101319.02;104955;1271;59374;-76
2024/03/04 04:44:34;;;;;;;21.10;9.70;;;;;;;2.66;100.00;101324.52;104880;1267;72978;-75
2024/03/04 04:47:02;;;;;;;13.50;9.20;;;;;;;2.66;100.00;101320.04;104930;1269;62157;-72
2024/03/04 04:49:30;;;;;;;21.30;10.50;;;;;;;2.68;100.00;101322.59;104884;1267;71688;-72
2024/03/04 04:51:58;;;;;;;12.40;8.50;;;;;;;2.70;100.00;101328.43;104821;1269;224941;-74
2024/03/04 04:54:25;;;;;;;15.60;8.10;;;;;;;2.70;100.00;101328.95;105006;1268;59390;-74
2024/03/04 04:56:53;;;;;;;16.80;9.40;;;;;;;2.70;100.00;101329.64;104957;1264;71899;-73
2024/03/04 04:59:20;;;;;;;19.80;10.20;;;;;;;2.69;100.00;101331.20;105191;1263;63415;-77
2024/03/04 05:01:48;;;;;;;22.40;10.60;;;;;;;2.71;100.00;101331.69;104953;1264;72176;-75
2024/03/04 05:04:18;;;;;;;17.10;9.60;;;;;;;2.72;100.00;101332.03;104953;1264;59717;-75
2024/03/04 05:07:06;;;;;;;21.70;13.70;;;;;;;2.72;100.00;101332.20;105171;1263;59766;-75
2024/03/04 05:09:34;;;;;;;27.50;17.10;;;;;;;2.71;100.00;101333.77;105093;1268;71089;-75
2024/03/04 05:12:01;;;;;;;29.90;16.60;;;;;;;2.69;100.00;101336.04;105632;1260;63709;-76
2024/03/04 05:14:28;;;;;;;28.40;14.70;;;;;;;2.70;100.00;101336.02;105489;1260;71570;-74
2024/03/04 05:16:56;;;;;;;21.20;13.20;;;;;;;2.73;100.00;101339.45;105627;1260;59716;-76
2024/03/04 05:19:27;;;;;;;18.70;12.60;;;;;;;2.74;100.00;101340.64;105727;1257;60014;-74
2024/03/04 05:21:55;;;;;;;25.00;16.50;;;;;;;2.76;100.00;101343.70;105791;1259;72722;-76
2024/03/04 05:24:23;;;;;;;33.00;17.40;;;;;;;2.79;100.00;101343.33;105788;1258;63674;-75
2024/03/04 05:26:50;;;;;;;34.00;17.70;;;;;;;2.79;100.00;101347.80;105689;1257;73342;-75
2024/03/04 05:29:18;;;;;;;28.50;15.20;;;;;;;2.78;100.00;101348.50;105752;1260;59771;-74
2024/03/04 05:31:53;;;;;;;32.00;16.90;;;;;;;2.79;100.00;101345.73;105770;1252;59602;-74
2024/03/04 05:34:20;;;;;;;31.50;14.80;;;;;;;2.81;100.00;101351.39;105944;1256;71865;-75
2024/03/04 05:36:48;;;;;;;20.80;11.40;;;;;;;2.84;100.00;101356.36;105986;1260;63690;-74
2024/03/04 05:39:20;;;;;;;22.50;11.40;;;;;;;2.86;100.00;101350.27;105890;1260;71444;-75
2024/03/04 05:41:49;;;;;;;25.40;11.80;;;;;;;2.88;100.00;101354.73;105881;1255;59983;-75
2024/03/04 05:44:16;;;;;;;19.10;10.10;;;;;;;2.88;100.00;101352.31;105832;1259;59544;-75
2024/03/04 05:46:44;;;;;;;28.10;12.70;;;;;;;2.90;100.00;101353.33;105885;1258;73160;-74
2024/03/04 05:49:12;;;;;;;32.70;16.30;;;;;;;2.92;100.00;101353.47;105794;1255;62187;-75
2024/03/04 05:51:40;;;;;;;33.60;14.90;;;;;;;2.95;100.00;101362.05;105792;1257;73347;-75
2024/03/04 05:54:09;;;;;;;27.00;15.10;;;;;;;2.97;100.00;101360.63;105827;1258;59761;-74
2024/03/04 05:56:44;;;;;;;25.90;13.50;;;;;;;2.99;100.00;101364.23;105915;1258;60008;-75
2024/03/04 05:59:12;;;;;;;21.20;13.00;;;;;;;3.02;100.00;101363.66;105836;1259;73836;-74
2024/03/04 06:01:40;;;;;;;26.40;14.80;;;;;;;3.05;100.00;101368.09;105873;1258;62423;-75
2024/03/04 06:04:08;;;;;;;24.00;14.00;;;;;;;3.10;100.00;101364.56;105748;1260;74723;-74
2024/03/04 06:06:36;;;;;;;28.60;13.50;;;;;;;3.12;100.00;101364.52;105769;1260;59720;-75
2024/03/04 06:09:04;;;;;;;18.90;12.50;;;;;;;3.15;100.00;101365.52;105733;1260;59986;-73
2024/03/04 06:11:32;;;;;;;24.90;12.20;;;;;;;3.19;100.00;101367.52;105703;1255;72800;-74
2024/03/04 06:14:00;;;;;;;22.10;13.20;;;;;;;3.24;100.00;101371.76;105705;1259;63870;-74
2024/03/04 06:16:28;;;;;;;24.20;13.00;;;;;;;3.34;100.00;101371.92;105774;1260;73106;-75
2024/03/04 06:18:55;;;;;;;22.60;12.30;;;;;;;3.60;100.00;101371.80;105694;1260;59737;-75
2024/03/04 06:21:23;;;;;;;26.40;14.20;;;;;;;4.15;100.00;101370.33;105779;1259;60081;-74
2024/03/04 06:23:51;;;;;;;19.90;12.10;;;;;;;4.87;100.00;101369.39;105683;1255;70873;-75
2024/03/04 06:26:19;;;;;;;26.40;11.30;;;;;;;5.56;100.00;101370.05;105779;1259;62579;-76
2024/03/04 06:28:46;;;;;;;19.40;10.50;;;;;;;6.18;99.79;101373.36;105673;1257;72536;-73
2024/03/04 06:31:14;;;;;;;23.50;10.20;;;;;;;6.74;90.85;101372.55;105778;1260;59982;-73
2024/03/04 06:33:41;;;;;;;13.80;9.40;;;;;;;7.21;85.41;101366.45;105716;1259;59654;-73
2024/03/04 06:36:19;;;;;;;16.70;9.30;;;;;;;7.75;78.22;101369.96;105698;1254;70828;-74
2024/03/04 06:38:49;;;;;;;17.80;11.50;;;;;;;8.24;72.05;101369.20;105761;1254;62324;-74
2024/03/04 06:41:17;;;;;;;17.50;11.80;;;;;;;8.65;65.32;101370.75;105676;1258;72505;-74
2024/03/04 06:43:44;;;;;;;18.60;11.30;;;;;;;8.94;63.02;101368.73;105724;1257;59805;-74
2024/03/04 06:46:12;;;;;;;18.90;11.50;;;;;;;9.24;59.57;101371.14;105738;1256;59960;-75
2024/03/04 06:48:40;;;;;;;14.40;10.10;;;;;;;9.49;58.42;101371.48;105772;1252;72977;-75
2024/03/04 06:51:08;;;;;;;23.60;11.60;;;;;;;9.70;56.08;101367.23;105703;1257;62709;-76
2024/03/04 06:53:38;;;;;;;22.20;12.60;;;;;;;9.85;55.75;101367.25;105741;1257;74698;-73
2024/03/04 06:56:09;;;;;;;19.70;11.80;;;;;;;9.85;54.49;101368.48;105713;1256;60761;-74
2024/03/04 06:58:37;;;;;;;20.00;12.70;;;;;;;9.62;54.52;101368.64;105848;1256;59651;-75
2024/03/04 07:01:05;;;;;;;35.30;13.80;;;;;;;9.27;55.09;101371.20;105742;1254;73083;-74
2024/03/04 07:03:33;;;;;;;22.80;14.00;;;;;;;8.92;57.13;101368.63;105743;1253;63630;-73
2024/03/04 07:06:02;;;;;;;20.60;11.90;;;;;;;8.65;58.07;101367.65;105697;1257;70902;-73
2024/03/04 07:08:29;;;;;;;19.90;12.90;;;;;;;8.31;59.63;101367.36;105688;1258;59723;-75
2024/03/04 07:11:00;;;;;;;25.60;15.40;;;;;;;8.02;62.25;101364.44;105877;1266;59621;-75
2024/03/04 07:13:28;;;;;;;20.30;11.40;;;;;;;7.82;63.57;101368.84;105943;1257;71607;-75
2024/03/04 07:15:56;;;;;;;21.40;12.70;;;;;;;7.59;65.02;101365.15;105944;1253;62430;-74
2024/03/04 07:18:31;;;;;;;19.00;12.10;;;;;;;7.37;67.67;101361.75;105993;1254;72773;-75
2024/03/04 07:20:58;;;;;;;;;;;;;;;7.19;69.59;101366.01;105923;1255;59685;-74
2024/03/04 07:23:30;;;;;;;20.30;10.10;;;;;;;7.03;72.12;101359.93;105759;1257;59615;-74
2024/03/04 07:25:57;;;;;;;17.60;10.00;;;;;;;7.04;74.68;101360.08;105903;1256;71126;-75
2024/03/04 07:28:25;;;;;;;17.40;9.40;;;;;;;7.36;74.29;101362.64;105795;1259;63836;-76
2024/03/04 07:30:53;;;;;;;18.40;10.30;;;;;;;7.88;70.78;101366.02;105755;1259;75508;-76
2024/03/04 07:33:21;;;;;;;19.80;10.90;;;;;;;8.40;66.74;101357.80;105741;1257;59647;-74
2024/03/04 07:35:49;;;;;;;21.80;12.10;;;;;;;8.90;63.76;101355.27;105700;1263;59632;-73
2024/03/04 07:38:16;;;;;;;20.60;11.70;;;;;;;9.46;60.37;101356.77;105625;1260;75086;-75
2024/03/04 07:40:44;;;;;;;26.40;15.30;;;;;;;10.00;58.06;101349.85;105769;1257;62257;-74
2024/03/04 07:43:12;;;;;;;40.30;17.10;;;;;;;10.55;54.66;101349.87;105870;1266;72764;-74
2024/03/04 07:45:40;;;;;;;39.00;17.10;;;;;;;10.98;52.61;101342.73;105704;1257;59816;-74
2024/03/04 07:48:08;;;;;;;31.10;16.30;;;;;;;11.38;50.75;101344.37;105860;1266;59933;-74
2024/03/04 07:50:37;;;;;;;19.50;12.20;;;;;;;11.76;48.85;101339.60;105778;1254;74142;-75
2024/03/04 07:53:05;;;;;;;26.50;12.90;;;;;;;12.09;47.97;101333.96;105894;1254;62209;-74
2024/03/04 07:55:33;;;;;;;20.70;11.80;;;;;;;12.46;47.73;101332.96;105881;1256;71634;-72
2024/03/04 07:58:00;;;;;;;17.40;9.70;;;;;;;12.92;45.81;101337.33;105827;1258;59650;-74
2024/03/04 08:00:27;;;;;;;16.70;12.00;;;;;;;13.27;44.73;101332.34;105826;1256;60697;-75
2024/03/04 08:02:55;;;;;;;21.00;9.50;;;;;;;13.60;44.03;101332.09;105767;1254;73270;-74
2024/03/04 08:05:23;;;;;;;19.50;9.70;;;;;;;13.88;43.08;101328.75;105826;1256;63901;-76
2024/03/04 08:07:51;;;;;;;27.10;10.00;;;;;;;14.22;42.68;101325.06;105783;1254;73703;-75
2024/03/04 08:10:18;;;;;;;17.10;11.20;;;;;;;14.58;41.63;101327.14;105759;1255;59717;-76
2024/03/04 08:12:46;;;;;;;13.10;9.50;;;;;;;14.78;40.40;101321.28;105913;1259;61997;-74
2024/03/04 08:15:13;;;;;;;19.80;9.20;;;;;;;14.84;40.20;101316.48;105776;1254;72570;-73
2024/03/04 08:17:41;;;;;;;21.10;11.50;;;;;;;14.92;39.91;101324.23;105843;1257;64057;-74
2024/03/04 08:20:23;;;;;;;18.50;10.30;;;;;;;14.99;39.35;101318.69;105850;1257;72550;-75
2024/03/04 08:23:02;;;;;;;12.80;8.70;;;;;;;14.93;39.27;101319.61;105852;1257;59728;-75
2024/03/04 08:25:30;;;;;;;11.30;8.10;;;;;;;14.76;39.22;101322.45;105753;1260;59717;-74
2024/03/04 08:27:58;;;;;;;17.70;8.40;;;;;;;14.53;39.35;101322.16;105717;1254;72850;-76
2024/03/04 08:30:25;;;;;;;14.00;8.00;;;;;;;14.18;40.01;101317.05;105852;1253;63799;-74
2024/03/04 08:32:53;;;;;;;18.00;7.50;;;;;;;13.99;40.58;101315.60;105852;1254;75335;-75
2024/03/04 08:35:22;;;;;;;15.90;8.00;;;;;;;13.99;40.76;101312.98;105856;1257;59685;-73
2024/03/04 08:37:50;;;;;;;11.20;8.00;;;;;;;14.01;40.88;101311.13;105766;1254;61690;-73
2024/03/04 08:40:18;;;;;;;12.10;8.10;;;;;;;14.12;40.85;101309.33;105725;1254;72850;-76
2024/03/04 08:42:46;;;;;;;17.90;9.20;;;;;;;14.21;40.52;101309.43;105786;1259;63749;-76
2024/03/04 08:45:16;;;;;;;14.70;8.50;;;;;;;14.20;40.85;101305.52;105760;1257;71071;-75
2024/03/04 08:47:45;;;;;;;16.70;8.40;;;;;;;14.40;40.93;101309.14;105727;1258;60523;-74
2024/03/04 08:50:13;;;;;;;14.90;8.50;;;;;;;14.58;40.17;101305.70;105902;1258;60451;-76
2024/03/04 08:52:41;;;;;;;16.00;8.70;;;;;;;14.56;40.27;101300.20;105676;1253;73151;-74
2024/03/04 08:55:09;;;;;;;16.20;8.80;;;;;;;14.56;40.46;101303.55;105685;1254;65991;-75
2024/03/04 08:57:37;;;;;;;16.70;9.60;;;;;;;14.65;40.48;101301.16;105655;1257;71379;-76
2024/03/04 09:00:08;;;;;;;16.00;8.20;;;;;;;14.76;40.23;101301.88;105880;1256;60458;-73
2024/03/04 09:02:35;;;;;;;17.80;9.30;;;;;;;14.73;40.57;101295.94;105806;1252;60497;-75
2024/03/04 09:05:04;;;;;;;14.60;9.70;;;;;;;14.84;40.60;101291.98;105691;1254;75126;-75
2024/03/04 09:07:35;;;;;;;16.70;8.90;;;;;;;15.01;40.02;101287.90;105767;1256;65504;-73
2024/03/04 09:10:04;;;;;;;13.30;8.60;;;;;;;15.09;39.98;101288.37;105729;1257;73326;-76
2024/03/04 09:12:32;;;;;;;13.80;7.80;;;;;;;15.13;39.79;101285.27;105827;1256;60497;-75
2024/03/04 09:14:59;;;;;;;20.20;10.50;;;;;;;15.22;39.94;101282.23;105766;1254;60443;-75
2024/03/04 09:17:27;;;;;;;12.80;8.00;;;;;;;15.44;39.88;101281.55;105688;1257;73678;-74
2024/03/04 09:19:55;;;;;;;13.60;8.00;;;;;;;15.71;39.48;101277.58;105828;1257;63508;-76
2024/03/04 09:22:26;;;;;;;14.90;9.70;;;;;;;15.93;39.17;101278.63;105791;1257;72816;-75
2024/03/04 09:24:54;;;;;;;15.00;9.70;;;;;;;16.11;38.53;101281.94;105729;1254;60470;-75
2024/03/04 09:27:22;;;;;;;10.20;8.30;;;;;;;15.98;38.31;101278.45;105755;1254;60514;-74
2024/03/04 09:29:49;;;;;;;11.50;8.40;;;;;;;15.90;38.81;101280.27;105655;1257;71983;-74
2024/03/04 09:32:17;;;;;;;19.50;9.50;;;;;;;15.97;38.69;101276.46;105923;1257;64221;-76
2024/03/04 09:34:45;;;;;;;15.50;9.00;;;;;;;15.92;38.42;101274.66;105740;1257;75236;-74
2024/03/04 09:37:13;;;;;;;16.80;9.50;;;;;;;15.82;38.64;101273.80;105872;1254;60758;-74
2024/03/04 09:39:40;;;;;;;18.50;10.00;;;;;;;15.74;39.00;101268.23;106077;1254;60431;-73
2024/03/04 09:42:08;;;;;;;13.50;9.40;;;;;;;15.82;39.37;101265.02;105796;1257;74140;-74
2024/03/04 09:44:35;;;;;;;11.00;8.40;;;;;;;15.98;39.10;101270.20;105782;1257;63411;-74
2024/03/04 09:47:03;;;;;;;16.20;9.80;;;;;;;16.04;38.50;101263.23;105776;1254;72419;-74
2024/03/04 09:49:31;;;;;;;18.90;9.70;;;;;;;16.00;38.67;101254.52;105771;1257;60534;-75
2024/03/04 09:51:59;;;;;;;15.90;9.30;;;;;;;16.12;38.96;101255.91;105700;1259;60408;-76
2024/03/04 09:54:32;;;;;;;16.30;10.20;;;;;;;16.45;38.66;101255.61;105821;1256;75711;-76
2024/03/04 09:57:00;;;;;;;15.30;9.00;;;;;;;16.73;37.90;101253.16;105738;1255;64064;-75
2024/03/04 09:59:27;;;;;;;14.40;9.00;;;;;;;16.86;37.44;101248.38;105976;1257;71452;-76
2024/03/04 10:01:57;;;;;;;17.20;8.80;;;;;;;16.87;37.55;101250.54;105720;1254;60402;-74
2024/03/04 10:04:25;;;;;;;14.60;9.10;;;;;;;16.88;37.34;101246.92;105867;1257;60537;-75
2024/03/04 10:06:54;;;;;;;14.30;9.50;;;;;;;16.86;37.30;101245.19;105934;1257;74897;-77
2024/03/04 10:09:23;;;;;;;17.00;10.80;;;;;;;16.80;37.34;101245.61;105871;1256;65231;-75
2024/03/04 10:11:50;;;;;;;14.60;10.30;;;;;;;16.80;37.71;101239.41;105894;1257;72950;-75
2024/03/04 10:14:18;;;;;;;15.20;10.10;;;;;;;16.94;37.53;101242.37;105705;1254;60425;-75
2024/03/04 10:16:46;;;;;;;15.90;9.50;;;;;;;17.04;37.49;101234.58;105867;1256;60517;-75
2024/03/04 10:19:18;;;;;;;17.10;9.10;;;;;;;17.31;37.35;101228.91;105936;1257;74520;-76
2024/03/04 10:21:45;;;;;;;13.00;8.80;;;;;;;17.55;36.71;101230.06;105692;1259;63346;-76
2024/03/04 10:24:13;;;;;;;16.20;8.70;;;;;;;17.58;36.46;101225.69;105725;1254;72923;-75
2024/03/04 10:26:45;;;;;;;15.90;9.60;;;;;;;17.46;36.59;101218.09;105860;1257;60572;-76
2024/03/04 10:29:15;;;;;;;17.80;9.10;;;;;;;17.46;36.66;101217.38;105757;1254;60571;-75
2024/03/04 10:31:52;;;;;;;13.50;8.70;;;;;;;17.54;36.57;101228.91;105812;1257;75614;-74
2024/03/04 10:34:23;;;;;;;12.40;8.60;;;;;;;17.43;36.35;101213.15;105925;1257;63364;-75
2024/03/04 10:36:57;;;;;;;13.90;8.60;;;;;;;17.30;36.80;101213.98;105795;1254;75837;-75
2024/03/04 10:39:29;;;;;;;;;;;;;;;17.32;36.82;101212.06;105935;1255;60600;-73
2024/03/04 10:41:57;;;;;;;17.90;8.50;;;;;;;17.33;36.97;101207.19;105879;1256;60517;-77
2024/03/04 10:44:26;;;;;;;12.80;8.20;;;;;;;17.42;36.96;101206.33;105844;1257;73682;-74
2024/03/04 10:46:55;;;;;;;11.30;8.50;;;;;;;17.57;36.76;101210.96;105742;1257;62340;-75
2024/03/04 10:49:27;;;;;;;10.70;7.50;;;;;;;17.56;36.32;101207.33;105747;1256;72061;-75
2024/03/04 10:51:55;;;;;;;9.90;7.40;;;;;;;17.44;36.64;101204.94;105860;1256;60511;-75
2024/03/04 10:54:41;;;;;;;9.50;7.40;;;;;;;17.39;36.55;101194.38;105878;1257;60510;-76
2024/03/04 10:57:26;;;;;;;13.40;8.50;;;;;;;17.28;36.49;101196.33;105796;1253;74736;-76
2024/03/04 10:59:56;;;;;;;12.00;8.20;;;;;;;17.22;36.74;101191.47;105695;1257;65355;-74
2024/03/04 11:02:55;;;;;;;13.70;7.30;;;;;;;17.24;36.79;101187.48;105808;1254;71951;-76
2024/03/04 11:05:26;;;;;;;13.80;8.20;;;;;;;17.27;36.79;101187.56;105792;1254;60885;-76
2024/03/04 11:07:58;;;;;;;16.10;8.20;;;;;;;17.32;36.73;101186.45;105783;1257;60913;-76
2024/03/04 11:11:02;;;;;;;19.40;7.90;;;;;;;17.47;36.79;101182.45;105846;1252;74845;-76
2024/03/04 11:13:34;;;;;;;;;;;;;;;17.72;36.53;101178.67;105730;1257;62528;-76
2024/03/04 11:16:44;;;;;;;16.10;7.00;;;;;;;17.71;36.33;101177.98;105730;1253;72194;-76
2024/03/04 11:19:26;;;;;;;8.90;6.20;;;;;;;17.72;36.51;101179.20;105616;1257;60801;-75
2024/03/04 11:21:53;;;;;;;10.10;6.20;;;;;;;17.90;35.98;101179.55;105771;1257;60546;-75
2024/03/04 11:24:21;;;;;;;10.90;7.00;;;;;;;17.87;35.82;101178.66;105787;1254;73124;-76
2024/03/04 11:26:50;;;;;;;13.90;6.80;;;;;;;17.68;36.13;101176.65;105771;1256;63609;-74
2024/03/04 11:29:17;;;;;;;14.20;7.60;;;;;;;17.66;36.27;101176.69;105667;1254;74395;-75
2024/03/04 11:31:55;;;;;;;8.50;6.10;;;;;;;17.67;36.57;101170.02;105631;1259;60499;-74
2024/03/04 11:34:22;;;;;;;14.70;6.50;;;;;;;17.78;36.31;101175.35;105681;1257;61398;-74
2024/03/04 11:36:50;;;;;;;9.80;6.20;;;;;;;17.92;35.93;101178.11;105729;1253;72382;-74
2024/03/04 11:39:24;;;;;;;10.90;6.50;;;;;;;17.89;35.77;101174.48;105820;1256;64774;-73
2024/03/04 11:41:52;;;;;;;10.70;6.00;;;;;;;17.81;35.91;101170.83;105739;1254;74336;-76
2024/03/04 11:44:29;;;;;;;14.00;6.70;;;;;;;17.70;36.21;101173.13;105927;1257;60527;-78
2024/03/04 11:46:56;;;;;;;8.50;6.50;;;;;;;17.57;35.90;101182.17;105829;1254;60594;-76
2024/03/04 11:49:26;;;;;;;10.60;5.70;;;;;;;17.26;36.14;101174.39;105763;1252;74765;-74
2024/03/04 11:52:10;;;;;;;14.70;6.90;;;;;;;16.83;36.62;101176.48;105750;1257;62981;-76
2024/03/04 11:54:39;;;;;;;13.90;6.50;;;;;;;16.43;37.35;101174.04;105838;1254;71707;-75
2024/03/04 11:57:07;;;;;;;9.20;6.60;;;;;;;16.15;37.82;101166.25;105817;1254;60492;-76
2024/03/04 11:59:40;;;;;;;13.10;6.90;;;;;;;16.07;38.59;101165.96;105838;1254;60524;-75
2024/03/04 12:02:11;;;;;;;14.40;6.50;;;;;;;16.11;38.75;101166.38;105767;1254;73323;-74
2024/03/04 12:04:41;;;;;;;9.90;5.60;;;;;;;16.15;38.65;101164.35;105788;1252;62468;-76
2024/03/04 12:07:09;;;;;;;10.20;6.80;;;;;;;16.12;38.13;101170.02;105695;1256;72290;-79
2024/03/04 12:09:36;;;;;;;16.60;6.80;;;;;;;15.96;38.30;101166.98;105839;1253;60511;-76
2024/03/04 12:12:24;;;;;;;9.90;6.50;;;;;;;15.75;38.71;101168.33;105828;1254;60448;-76
2024/03/04 12:14:52;;;;;;;18.00;7.00;;;;;;;15.55;39.11;101162.91;105648;1257;72956;-75
2024/03/04 12:17:19;;;;;;;11.40;6.60;;;;;;;15.38;39.82;101160.42;105835;1257;64674;-76
2024/03/04 12:19:54;;;;;;;14.30;6.80;;;;;;;15.33;40.05;101159.70;105888;1257;73189;-75
2024/03/04 12:22:24;;;;;;;12.60;7.90;;;;;;;15.23;40.36;101164.14;105809;1257;60541;-76
2024/03/04 12:25:06;;;;;;;13.60;8.50;;;;;;;15.11;40.81;101161.95;105851;1254;60652;-75
2024/03/04 12:27:35;;;;;;;23.00;8.90;;;;;;;15.02;41.23;101158.36;105713;1251;73841;-77
2024/03/04 12:30:07;;;;;;;15.90;7.10;;;;;;;14.93;41.29;101162.31;105839;1256;63538;-74
2024/03/04 12:32:35;;;;;;;15.70;7.80;;;;;;;14.74;41.84;101161.02;105958;1256;73374;-76
2024/03/04 12:35:16;;;;;;;12.00;7.50;;;;;;;14.64;42.42;101160.47;105825;1254;60507;-75
2024/03/04 12:37:45;;;;;;;16.00;7.20;;;;;;;14.51;42.78;101155.32;105753;1254;60772;-74
2024/03/04 12:40:13;;;;;;;15.90;7.40;;;;;;;14.42;43.17;101151.90;105884;1254;72556;-75
2024/03/04 12:42:41;;;;;;;13.00;6.30;;;;;;;14.38;43.51;101154.48;107494;1254;62854;-77
2024/03/04 12:45:09;;;;;;;13.80;7.30;;;;;;;14.30;43.54;101159.21;107012;1253;73032;-75
2024/03/04 12:47:39;;;;;;;13.00;7.30;;;;;;;14.11;44.24;101152.59;107197;1254;60482;-74
2024/03/04 12:50:07;;;;;;;13.20;7.50;;;;;;;13.97;44.83;101152.22;107932;1253;60895;-74
2024/03/04 12:52:35;;;;;;;12.10;6.40;;;;;;;13.94;45.15;101147.71;107388;1252;72660;-75
2024/03/04 12:55:03;;;;;;;14.70;8.10;;;;;;;13.84;45.34;101147.49;108247;1253;65418;-75
2024/03/04 12:57:30;;;;;;;10.90;7.00;;;;;;;13.64;46.08;101151.23;105905;1254;72679;-76
2024/03/04 12:59:58;;;;;;;14.50;7.30;;;;;;;13.52;46.53;101150.96;105939;1256;60419;-75
2024/03/04 13:02:26;;;;;;;11.90;7.40;;;;;;;13.44;46.79;101144.39;106002;1256;60885;-76
2024/03/04 13:04:54;;;;;;;9.80;5.40;;;;;;;13.41;46.85;101143.02;105778;1256;74545;-75
2024/03/04 13:07:22;;;;;;;16.10;6.40;;;;;;;13.37;46.70;101142.05;105776;1254;63458;-76
2024/03/04 13:09:51;;;;;;;10.30;5.60;;;;;;;13.25;46.94;101137.83;105787;1256;74947;-76
2024/03/04 13:12:18;;;;;;;11.60;6.00;;;;;;;13.14;47.29;101145.23;105839;1254;60918;-74
2024/03/04 13:14:46;;;;;;;7.20;5.50;;;;;;;12.98;47.49;101144.27;105744;1256;60476;-75